Time;durP1;ratioP1;P1;durP2;ratioP2;P2;SDS_P1;SDS_P2;PMS_P1;PMS_P2;Temp;Humidity;BMP_temperature;BMP_pressure;BME280_temperature;BME280_humidity;BME280_pressure;Samples;Min_cycle;Max_cycle;Signal;HPM_P1;HPM_P2
2022/01/27 00:00:42;;;;;;;16.83;11.60;;;;;;;3.09;59.56;102303.56;2556418;23;20669;-70
2022/01/27 00:01:55;;;;;;;15.82;11.43;;;;;;;3.18;58.87;102315.22;2569002;23;20160;-70
2022/01/27 00:04:15;;;;;;;15.98;11.48;;;;;;;3.29;59.48;102362.16;2569835;23;20147;-70
2022/01/27 00:05:18;;;;;;;15.43;10.85;;;;;;;3.50;59.58;102379.31;2568991;23;20176;-70
2022/01/27 00:06:19;;;;;;;13.90;10.80;;;;;;;3.39;59.76;102375.41;2569133;23;20609;-70
2022/01/27 00:07:20;;;;;;;16.30;11.80;;;;;;;3.30;59.52;102363.75;2568583;23;20164;-70
2022/01/27 00:08:40;;;;;;;14.30;9.97;;;;;;;3.35;60.30;102369.81;2568913;23;20160;-70
2022/01/27 00:09:50;;;;;;;14.55;10.30;;;;;;;3.32;59.12;102365.00;2569897;23;20132;-70
2022/01/27 00:11:54;;;;;;;12.90;9.55;;;;;;;3.16;60.26;102352.31;2569746;23;20576;-70
2022/01/27 00:12:55;;;;;;;13.40;9.10;;;;;;;3.29;60.43;102371.16;2568910;23;20176;-70
2022/01/27 00:13:59;;;;;;;12.43;9.07;;;;;;;3.27;60.45;102373.47;2570009;23;20175;-70
2022/01/27 00:15:12;;;;;;;14.35;9.68;;;;;;;3.25;60.12;102373.00;2569941;23;20228;-70
2022/01/27 00:16:27;;;;;;;12.00;9.15;;;;;;;3.22;60.46;102375.59;2568987;23;20148;-70
2022/01/27 00:17:31;;;;;;;11.10;8.40;;;;;;;3.14;61.18;102369.09;2568983;23;20536;-70
2022/01/27 00:18:32;;;;;;;10.68;8.38;;;;;;;2.80;61.34;102333.91;2569892;23;20587;-70
2022/01/27 00:19:33;;;;;;;12.00;7.88;;;;;;;2.53;61.15;102279.78;2570017;23;20144;-70
2022/01/27 00:20:33;;;;;;;11.80;8.43;;;;;;;3.03;61.77;102369.88;2569373;23;20158;-70
2022/01/27 00:21:34;;;;;;;10.90;8.70;;;;;;;2.95;61.42;102374.31;2570169;23;20148;-70
2022/01/27 00:22:35;;;;;;;10.87;8.07;;;;;;;2.95;61.91;102377.06;2569329;23;20152;-70
2022/01/27 00:23:35;;;;;;;12.00;8.30;;;;;;;2.96;62.03;102375.91;2569730;23;20207;-70
2022/01/27 00:24:36;;;;;;;10.63;8.23;;;;;;;2.97;61.52;102371.25;2569710;23;20159;-70
2022/01/27 00:25:37;;;;;;;9.70;7.60;;;;;;;3.04;61.58;102372.25;2568870;23;20153;-70
2022/01/27 00:26:37;;;;;;;11.00;8.55;;;;;;;2.57;61.69;102301.78;2569178;23;20287;-70
2022/01/27 00:27:38;;;;;;;10.87;8.00;;;;;;;2.68;61.67;102331.09;2569563;23;20152;-70
2022/01/27 00:28:40;;;;;;;10.97;8.30;;;;;;;2.97;61.24;102374.78;2569824;23;20149;-70
2022/01/27 00:29:40;;;;;;;9.88;7.97;;;;;;;2.96;61.33;102366.88;2569963;23;20209;-70
2022/01/27 00:30:41;;;;;;;10.43;7.73;;;;;;;2.90;61.42;102360.84;2569259;23;20211;-70
2022/01/27 00:31:41;;;;;;;10.73;7.60;;;;;;;2.23;61.46;102256.41;2569908;23;20192;-70
2022/01/27 00:32:42;;;;;;;11.07;8.07;;;;;;;2.80;61.25;102349.50;2569054;23;20352;-70
2022/01/27 00:33:44;;;;;;;11.03;8.57;;;;;;;2.96;61.18;102380.59;2569955;23;20156;-70
2022/01/27 00:34:45;;;;;;;10.98;8.10;;;;;;;2.90;61.59;102379.19;2569777;23;20152;-70
2022/01/27 00:35:45;;;;;;;10.73;8.07;;;;;;;1.97;62.08;102269.53;2569996;23;20218;-70
2022/01/27 00:36:46;;;;;;;10.27;7.13;;;;;;;2.59;62.37;102384.34;2569913;23;20148;-70
2022/01/27 00:37:46;;;;;;;10.63;8.00;;;;;;;2.44;63.27;102385.78;2569472;23;20187;-70
2022/01/27 00:38:49;;;;;;;10.77;8.03;;;;;;;2.44;63.96;102393.16;2569688;23;20175;-70
2022/01/27 00:39:49;;;;;;;11.50;8.05;;;;;;;2.45;63.65;102395.56;2568685;23;20636;-70
2022/01/27 00:40:50;;;;;;;11.63;7.87;;;;;;;2.32;64.46;102391.16;2568837;23;20503;-70
2022/01/27 00:41:51;;;;;;;11.30;8.15;;;;;;;1.85;64.42;102326.09;2569904;23;20551;-70
2022/01/27 00:42:52;;;;;;;11.00;8.23;;;;;;;2.22;64.59;102396.25;2569187;23;20152;-70
2022/01/27 00:43:53;;;;;;;12.50;9.27;;;;;;;2.21;64.44;102392.69;2569750;23;20162;-70
2022/01/27 00:44:54;;;;;;;13.17;9.50;;;;;;;2.24;64.55;102389.31;2569891;23;20187;-70
2022/01/27 00:45:55;;;;;;;13.30;9.88;;;;;;;2.12;65.21;102392.00;2569728;23;20209;-70
2022/01/27 00:46:56;;;;;;;15.77;11.05;;;;;;;2.07;65.20;102396.84;2569572;23;20594;-70
2022/01/27 00:48:00;;;;;;;14.57;10.83;;;;;;;2.00;65.17;102393.84;2569020;23;20585;-70
2022/01/27 00:49:01;;;;;;;15.10;11.23;;;;;;;1.27;65.29;102288.66;2569051;23;20152;-70
2022/01/27 00:50:02;;;;;;;15.20;10.23;;;;;;;2.08;65.34;102393.78;2568896;23;20607;-70
2022/01/27 00:51:05;;;;;;;14.15;10.98;;;;;;;1.28;65.15;102281.28;2569918;23;20156;-70
2022/01/27 00:52:10;;;;;;;13.40;9.82;;;;;;;2.01;64.98;102401.69;2569690;23;20561;-70
2022/01/27 00:54:31;;;;;;;13.93;9.98;;;;;;;1.94;65.54;102397.88;2569898;23;20156;-70
2022/01/27 00:55:38;;;;;;;13.27;10.30;;;;;;;1.83;65.73;102397.47;2569836;23;20617;-70
2022/01/27 00:56:51;;;;;;;14.25;10.07;;;;;;;1.67;66.05;102376.50;2569955;23;20142;-70
2022/01/27 01:01:02;;;;;;;15.63;11.00;;;;;;;1.54;67.17;102388.47;2524205;23;20169;-70
2022/01/27 01:03:30;;;;;;;14.57;10.38;;;;;;;1.50;67.53;102385.59;2553884;23;20185;-70
2022/01/27 01:04:34;;;;;;;13.70;9.82;;;;;;;1.55;67.45;102395.56;2569713;23;20159;-70
2022/01/27 01:06:52;;;;;;;14.60;10.05;;;;;;;1.23;67.18;102336.09;2569633;23;20171;-70
2022/01/27 01:07:56;;;;;;;12.95;9.43;;;;;;;0.65;67.71;102230.34;2569623;23;20148;-70
2022/01/27 01:10:49;;;;;;;13.17;9.20;;;;;;;1.35;67.26;102341.66;2569383;23;20162;-70
2022/01/27 01:15:32;;;;;;;14.20;9.75;;;;;;;1.84;65.56;102379.94;2569699;23;20550;-70
2022/01/27 01:18:01;;;;;;;12.53;9.00;;;;;;;1.91;65.05;102371.22;2569519;23;20186;-70
2022/01/27 01:19:05;;;;;;;11.23;7.70;;;;;;;1.94;65.64;102373.28;2569114;23;20156;-70
2022/01/27 01:30:22;;;;;;;10.27;7.80;;;;;;;2.40;63.55;102360.22;2570062;23;20140;-70
2022/01/27 01:33:37;;;;;;;10.90;7.68;;;;;;;2.53;63.07;102364.63;2570667;23;20141;-70
2022/01/27 01:34:44;;;;;;;10.90;6.95;;;;;;;2.45;62.89;102351.78;2570324;23;20209;-70
2022/01/27 01:36:00;;;;;;;10.60;8.02;;;;;;;1.77;62.54;102242.19;2570685;23;20132;-70
2022/01/27 01:37:04;;;;;;;9.48;7.65;;;;;;;2.57;62.79;102357.31;2570142;23;20614;-70
2022/01/27 01:38:04;;;;;;;9.25;7.50;;;;;;;2.10;62.60;102278.59;2570419;23;20157;-70
2022/01/27 01:39:05;;;;;;;9.50;7.53;;;;;;;2.61;62.68;102357.44;2569860;23;20458;-70
2022/01/27 01:40:16;;;;;;;8.93;6.90;;;;;;;2.61;62.43;102354.69;2569527;23;20646;-70
2022/01/27 01:41:16;;;;;;;9.88;7.70;;;;;;;1.96;62.55;102267.91;2570541;23;20452;-70
2022/01/27 01:42:17;;;;;;;9.30;7.60;;;;;;;2.01;62.25;102275.91;2570766;23;20161;-70
2022/01/27 01:43:18;;;;;;;10.27;7.33;;;;;;;2.50;62.19;102328.88;2569788;23;20207;-70
2022/01/27 01:44:20;;;;;;;9.85;7.43;;;;;;;2.55;61.89;102340.44;2570459;23;20231;-70
2022/01/27 01:45:22;;;;;;;9.55;7.70;;;;;;;2.62;61.95;102375.47;2570548;23;20191;-70
2022/01/27 01:46:22;;;;;;;9.48;7.50;;;;;;;2.61;61.92;102344.56;2570438;23;20153;-70
2022/01/27 01:47:25;;;;;;;8.70;6.80;;;;;;;2.18;61.74;102280.44;2570188;23;20255;-70
2022/01/27 01:48:25;;;;;;;9.65;7.15;;;;;;;2.63;62.05;102338.75;2570394;23;20499;-70
2022/01/27 01:49:27;;;;;;;10.07;7.03;;;;;;;2.64;61.84;102343.88;2582117;23;20253;-70
2022/01/27 01:50:28;;;;;;;9.73;6.57;;;;;;;2.24;61.76;102284.56;2568828;23;20172;-70
2022/01/27 01:51:32;;;;;;;8.40;6.47;;;;;;;2.68;61.89;102344.00;2569745;23;20155;-70
2022/01/27 01:52:32;;;;;;;9.18;7.13;;;;;;;2.43;62.00;102323.97;2569809;23;20232;-70
2022/01/27 01:53:33;;;;;;;7.17;5.87;;;;;;;2.66;61.80;102347.06;2570521;23;20167;-70
2022/01/27 01:54:34;;;;;;;7.93;6.60;;;;;;;2.70;61.97;102344.47;2570369;23;20144;-70
2022/01/27 01:55:34;;;;;;;8.87;6.10;;;;;;;1.98;61.92;102240.25;2570529;23;20158;-70
2022/01/27 01:56:36;;;;;;;8.67;6.97;;;;;;;2.33;61.84;102294.31;2570262;23;20848;-70
2022/01/27 01:57:37;;;;;;;9.02;6.47;;;;;;;2.16;62.41;102269.81;2569969;23;20152;-70
2022/01/27 01:58:38;;;;;;;8.73;6.90;;;;;;;2.47;61.75;102313.16;2570328;23;20149;-70
2022/01/27 01:59:38;;;;;;;7.60;6.43;;;;;;;2.69;61.83;102356.56;2570480;23;20185;-70
2022/01/27 02:00:39;;;;;;;8.73;6.80;;;;;;;2.68;61.28;102355.75;2569812;23;20206;-70
2022/01/27 02:01:40;;;;;;;9.80;7.20;;;;;;;2.64;61.83;102356.75;2570603;23;20598;-70
2022/01/27 02:02:41;;;;;;;9.25;7.10;;;;;;;2.60;61.84;102366.78;2569606;23;20148;-70
2022/01/27 02:03:41;;;;;;;9.83;6.73;;;;;;;2.59;61.73;102357.78;2570297;23;20159;-70
2022/01/27 02:04:43;;;;;;;8.57;6.87;;;;;;;2.58;61.61;102352.66;2570004;23;20156;-70
2022/01/27 02:05:50;;;;;;;8.63;6.82;;;;;;;2.04;62.19;102277.16;2569586;23;20156;-70
2022/01/27 02:07:02;;;;;;;8.50;7.25;;;;;;;2.12;62.00;102300.94;2569506;23;20136;-70
2022/01/27 02:09:48;;;;;;;9.57;7.15;;;;;;;2.52;61.83;102357.50;2570553;23;20141;-70
2022/01/27 02:17:59;;;;;;;8.70;6.40;;;;;;;2.29;63.76;102356.28;2570017;23;20144;-70
2022/01/27 02:18:59;;;;;;;7.90;6.35;;;;;;;2.29;64.31;102363.69;2570310;23;20550;-70
2022/01/27 02:20:00;;;;;;;8.73;6.40;;;;;;;1.66;63.77;102260.94;2569655;23;20157;-70
2022/01/27 02:21:01;;;;;;;9.60;6.77;;;;;;;2.31;64.09;102367.69;2570384;23;20159;-70
2022/01/27 02:22:04;;;;;;;7.77;6.53;;;;;;;2.32;64.14;102368.50;2570374;23;20153;-70
2022/01/27 02:23:07;;;;;;;8.27;6.93;;;;;;;2.35;63.63;102362.34;2569682;23;20601;-70
2022/01/27 02:24:07;;;;;;;8.38;6.47;;;;;;;2.40;63.86;102362.94;2569249;23;20224;-70
2022/01/27 02:25:08;;;;;;;7.33;6.03;;;;;;;2.44;64.34;102358.41;2569419;23;20230;-70
2022/01/27 02:26:09;;;;;;;7.80;6.30;;;;;;;2.48;63.70;102356.59;2570053;23;20206;-70
2022/01/27 02:27:09;;;;;;;8.03;6.57;;;;;;;2.27;63.52;102316.72;2569862;23;20392;-70
2022/01/27 02:28:10;;;;;;;9.47;7.00;;;;;;;2.30;63.99;102344.19;2570319;23;20661;-70
2022/01/27 02:29:11;;;;;;;9.00;6.72;;;;;;;2.48;63.87;102358.53;2570369;23;20591;-70
2022/01/27 02:30:12;;;;;;;8.87;6.83;;;;;;;2.17;63.90;102325.34;2569883;23;20499;-70
2022/01/27 02:31:12;;;;;;;8.95;7.20;;;;;;;1.87;63.70;102255.47;2570328;23;20184;-70
2022/01/27 02:32:15;;;;;;;8.80;7.13;;;;;;;2.12;63.29;102293.53;2570165;23;20587;-70
2022/01/27 02:33:15;;;;;;;8.93;6.88;;;;;;;2.64;63.83;102356.75;2569686;23;20180;-70
2022/01/27 02:34:16;;;;;;;9.77;7.07;;;;;;;1.80;62.86;102206.00;2570057;23;20602;-70
2022/01/27 02:35:16;;;;;;;9.60;6.83;;;;;;;2.24;63.12;102284.56;2569927;23;20219;-70
2022/01/27 02:36:17;;;;;;;9.67;7.47;;;;;;;2.74;62.59;102354.41;2570192;23;20159;-70
2022/01/27 02:37:18;;;;;;;9.57;7.17;;;;;;;2.77;62.40;102350.97;2569846;23;20211;-70
2022/01/27 02:38:19;;;;;;;9.43;7.00;;;;;;;2.76;62.41;102346.66;2581723;23;20243;-70
2022/01/27 02:39:20;;;;;;;10.03;7.57;;;;;;;2.80;62.73;102349.50;2581976;23;20154;-70
2022/01/27 02:40:26;;;;;;;9.35;7.15;;;;;;;2.86;62.05;102354.44;2569517;23;20235;-70
2022/01/27 02:41:30;;;;;;;9.40;7.07;;;;;;;2.32;62.79;102278.22;2570199;23;20179;-70
2022/01/27 02:42:36;;;;;;;9.00;6.75;;;;;;;2.38;62.29;102307.78;2569513;23;20170;-70
2022/01/27 02:43:36;;;;;;;7.82;6.43;;;;;;;2.44;62.16;102286.44;2570196;23;20169;-70
2022/01/27 02:44:55;;;;;;;8.43;6.97;;;;;;;2.89;62.55;102345.56;2570051;23;20155;-70
2022/01/27 02:46:06;;;;;;;9.93;6.68;;;;;;;2.92;62.18;102371.47;2570243;23;20136;-70
2022/01/27 02:47:07;;;;;;;9.15;6.70;;;;;;;2.90;62.56;102351.81;2581523;23;20226;-70
2022/01/27 02:48:07;;;;;;;8.83;6.70;;;;;;;2.92;61.74;102344.88;2581882;23;20593;-70
2022/01/27 02:49:08;;;;;;;8.87;6.90;;;;;;;2.40;61.63;102258.97;2570237;23;20150;-70
2022/01/27 02:50:09;;;;;;;8.60;6.30;;;;;;;2.87;61.58;102339.59;2569404;23;20153;-70
2022/01/27 02:51:09;;;;;;;8.53;6.50;;;;;;;2.86;62.24;102345.41;2570445;23;20149;-70
2022/01/27 02:52:11;;;;;;;9.40;6.87;;;;;;;2.92;61.78;102349.56;2570152;23;20588;-70
2022/01/27 02:53:12;;;;;;;8.18;6.50;;;;;;;2.90;62.17;102338.94;2569429;23;20149;-70
2022/01/27 02:54:12;;;;;;;8.53;6.53;;;;;;;2.90;62.19;102341.69;2570045;23;20602;-70
2022/01/27 02:55:13;;;;;;;8.10;6.03;;;;;;;2.88;62.54;102337.69;2570282;23;20551;-70
2022/01/27 02:56:13;;;;;;;8.67;6.93;;;;;;;2.65;62.16;102311.81;2569306;23;20153;-70
2022/01/27 02:57:14;;;;;;;7.60;5.83;;;;;;;2.87;62.37;102341.56;2569176;23;20160;-70
2022/01/27 02:58:16;;;;;;;7.53;5.67;;;;;;;2.85;62.42;102327.38;2570185;23;20211;-70
2022/01/27 02:59:19;;;;;;;8.00;6.18;;;;;;;2.91;62.17;102336.97;2569365;23;20157;-70
2022/01/27 03:00:20;;;;;;;9.05;6.82;;;;;;;2.84;62.47;102336.75;2568751;23;20515;-70
2022/01/27 03:01:21;;;;;;;7.40;6.20;;;;;;;2.81;62.05;102337.41;2570106;23;20149;-70
2022/01/27 03:02:23;;;;;;;8.10;6.07;;;;;;;2.78;61.99;102333.41;2570047;23;20183;-70
2022/01/27 03:03:23;;;;;;;7.57;6.15;;;;;;;2.30;62.38;102256.66;2569783;23;20152;-70
2022/01/27 03:04:26;;;;;;;7.77;6.20;;;;;;;2.76;62.72;102332.97;2570157;23;20140;-70
2022/01/27 03:05:27;;;;;;;9.38;5.90;;;;;;;1.80;62.72;102182.19;2570075;23;20171;-70
2022/01/27 03:06:27;;;;;;;7.87;6.20;;;;;;;2.71;63.33;102324.97;2570091;23;20144;-70
2022/01/27 03:07:28;;;;;;;8.63;6.60;;;;;;;2.62;63.11;102318.00;2569890;23;20148;-70
2022/01/27 03:08:28;;;;;;;8.53;6.53;;;;;;;1.95;63.24;102208.91;2569868;23;20179;-70
2022/01/27 03:09:29;;;;;;;7.43;6.10;;;;;;;2.57;63.44;102305.31;2570133;23;20149;-70
2022/01/27 03:10:39;;;;;;;9.03;6.73;;;;;;;2.71;63.71;102332.38;2569611;23;20227;-70
2022/01/27 03:11:47;;;;;;;9.98;6.97;;;;;;;2.64;63.61;102334.88;2570107;23;20192;-70
2022/01/27 03:12:56;;;;;;;7.47;6.18;;;;;;;1.97;63.89;102231.25;2569609;23;20169;-70
2022/01/27 03:13:57;;;;;;;8.40;6.40;;;;;;;2.59;63.97;102326.88;2570174;23;20140;-70
2022/01/27 03:14:58;;;;;;;8.10;6.47;;;;;;;2.56;63.67;102336.56;2569930;23;20152;-70
2022/01/27 03:15:58;;;;;;;7.97;5.93;;;;;;;2.34;63.93;102278.66;2570196;23;20240;-70
2022/01/27 03:17:01;;;;;;;9.83;6.30;;;;;;;2.30;63.91;102281.28;2569665;23;20152;-70
2022/01/27 03:18:01;;;;;;;9.88;6.28;;;;;;;2.07;63.94;102247.25;2569386;23;20156;-70
2022/01/27 03:19:02;;;;;;;8.23;6.70;;;;;;;2.60;63.87;102326.53;2569411;23;20165;-70
2022/01/27 03:20:03;;;;;;;8.40;5.97;;;;;;;2.62;63.94;102323.47;2581293;23;20152;-70
2022/01/27 03:21:05;;;;;;;8.02;6.10;;;;;;;2.59;64.38;102330.41;2569396;23;20691;-70
2022/01/27 03:22:07;;;;;;;7.75;6.28;;;;;;;2.42;64.31;102325.09;2570246;23;20230;-70
2022/01/27 03:23:09;;;;;;;7.90;6.00;;;;;;;2.46;64.41;102327.97;2569311;23;20159;-70
2022/01/27 03:24:09;;;;;;;7.82;5.80;;;;;;;2.47;64.55;102322.16;2569892;23;20153;-70
2022/01/27 03:25:10;;;;;;;7.97;6.37;;;;;;;2.42;64.92;102322.34;2570196;23;20186;-70
2022/01/27 03:26:10;;;;;;;7.90;5.80;;;;;;;2.43;64.50;102321.25;2570000;23;20172;-70
2022/01/27 03:27:21;;;;;;;7.67;5.97;;;;;;;2.40;64.58;102321.91;2569760;23;20472;-70
2022/01/27 03:28:26;;;;;;;7.63;6.32;;;;;;;2.46;65.02;102334.22;2570083;23;20136;-70
2022/01/27 03:29:27;;;;;;;8.70;6.35;;;;;;;2.48;64.56;102333.91;2570042;23;20591;-70
2022/01/27 03:30:27;;;;;;;8.50;6.32;;;;;;;2.46;64.94;102334.22;2569494;23;20151;-70
2022/01/27 03:31:28;;;;;;;8.23;6.50;;;;;;;2.53;64.71;102334.50;2570001;23;20621;-70
2022/01/27 03:32:29;;;;;;;8.03;6.20;;;;;;;2.46;64.87;102339.72;2569501;23;20155;-70
2022/01/27 03:33:29;;;;;;;8.00;6.17;;;;;;;2.48;65.04;102333.91;2570246;23;20668;-70
2022/01/27 03:34:30;;;;;;;7.97;6.23;;;;;;;2.56;65.03;102344.75;2569782;23;20478;-70
2022/01/27 03:35:30;;;;;;;7.90;6.50;;;;;;;2.60;64.42;102348.44;2570060;23;20155;-70
2022/01/27 03:36:31;;;;;;;8.73;6.57;;;;;;;2.41;64.26;102323.50;2570088;23;20155;-70
2022/01/27 03:37:31;;;;;;;8.13;6.40;;;;;;;2.59;64.56;102354.22;2569550;23;20172;-70
2022/01/27 03:38:32;;;;;;;8.33;6.03;;;;;;;2.61;64.18;102352.75;2569918;23;20144;-70
2022/01/27 03:39:36;;;;;;;8.30;6.07;;;;;;;1.91;64.34;102238.03;2570155;23;20153;-70
2022/01/27 03:40:37;;;;;;;8.02;6.63;;;;;;;2.69;64.10;102353.81;2569400;23;20483;-70
2022/01/27 03:41:39;;;;;;;9.17;6.50;;;;;;;2.65;64.12;102348.22;2569886;23;20200;-70
2022/01/27 03:42:49;;;;;;;8.48;6.47;;;;;;;2.57;64.08;102340.88;2580841;23;20160;-70
2022/01/27 03:43:51;;;;;;;8.40;6.60;;;;;;;2.65;64.05;102353.69;2579832;23;20142;-70
2022/01/27 03:44:52;;;;;;;8.20;6.38;;;;;;;2.64;63.76;102356.75;2569914;23;20176;-70
2022/01/27 03:45:52;;;;;;;8.23;6.47;;;;;;;2.62;63.80;102359.06;2570017;23;20155;-70
2022/01/27 03:46:55;;;;;;;8.67;6.70;;;;;;;0.91;63.29;102083.66;2569388;23;20173;-70
2022/01/27 03:47:56;;;;;;;7.43;5.90;;;;;;;2.10;63.25;102265.69;2569742;23;20164;-70
2022/01/27 03:48:56;;;;;;;8.27;6.68;;;;;;;2.57;63.20;102360.03;2569926;23;20175;-70
2022/01/27 03:49:57;;;;;;;7.83;6.17;;;;;;;2.63;63.04;102355.16;2569411;23;20152;-70
2022/01/27 03:50:57;;;;;;;8.87;6.63;;;;;;;2.55;63.58;102359.59;2569828;23;20160;-70
2022/01/27 03:52:00;;;;;;;8.80;6.60;;;;;;;2.53;63.92;102347.38;2569963;23;20191;-70
2022/01/27 03:53:01;;;;;;;8.50;5.88;;;;;;;1.64;63.75;102205.03;2569203;23;20163;-70
2022/01/27 03:54:02;;;;;;;8.93;6.40;;;;;;;2.64;63.45;102365.78;2570062;23;20149;-70
2022/01/27 03:55:03;;;;;;;9.13;6.87;;;;;;;2.57;63.93;102365.50;2569111;23;20180;-70
2022/01/27 03:56:04;;;;;;;8.93;6.23;;;;;;;2.60;63.83;102359.38;2569247;23;20164;-70
2022/01/27 03:57:04;;;;;;;7.63;6.10;;;;;;;2.30;63.21;102305.91;2569442;23;20148;-70
2022/01/27 03:58:05;;;;;;;7.50;6.20;;;;;;;2.17;63.41;102281.56;2569984;23;20231;-70
2022/01/27 03:59:05;;;;;;;8.67;6.70;;;;;;;2.62;64.00;102354.34;2569884;23;20148;-70
2022/01/27 04:00:08;;;;;;;8.50;6.70;;;;;;;2.61;63.92;102360.97;2569314;23;20148;-70
2022/01/27 04:01:08;;;;;;;7.75;6.20;;;;;;;2.61;63.77;102358.25;2569949;23;20251;-70
2022/01/27 04:02:09;;;;;;;7.90;6.73;;;;;;;2.46;63.67;102336.19;2569758;23;20148;-70
2022/01/27 04:03:12;;;;;;;8.30;6.30;;;;;;;2.59;63.92;102368.72;2569457;23;20148;-70
2022/01/27 04:04:14;;;;;;;8.38;6.18;;;;;;;2.59;63.91;102357.78;2569718;23;20206;-70
2022/01/27 04:05:14;;;;;;;8.68;6.80;;;;;;;2.60;63.47;102367.59;2569906;23;20180;-70
2022/01/27 04:06:20;;;;;;;9.47;6.63;;;;;;;2.56;63.50;102355.72;2569845;23;20180;-70
2022/01/27 04:07:21;;;;;;;8.50;6.70;;;;;;;2.57;63.69;102364.72;2569745;23;20143;-70
2022/01/27 04:08:22;;;;;;;9.13;6.83;;;;;;;2.54;63.67;102362.66;2569795;23;20155;-70
2022/01/27 04:09:24;;;;;;;8.85;6.70;;;;;;;2.51;63.81;102363.34;2569906;23;20152;-70
2022/01/27 04:10:25;;;;;;;9.40;6.80;;;;;;;2.34;64.06;102353.34;2569307;23;20156;-70
2022/01/27 04:11:25;;;;;;;8.43;6.73;;;;;;;2.39;64.16;102368.75;2569597;23;20220;-70
2022/01/27 04:12:26;;;;;;;8.70;7.07;;;;;;;2.26;63.86;102356.16;2569227;23;20155;-70
2022/01/27 04:13:26;;;;;;;8.87;6.43;;;;;;;1.63;64.23;102256.13;2568570;23;20218;-70
2022/01/27 04:14:27;;;;;;;9.23;7.50;;;;;;;1.97;64.30;102310.53;2568888;23;20263;-70
2022/01/27 04:15:27;;;;;;;9.77;7.13;;;;;;;2.26;64.17;102365.16;2569978;23;20145;-70
2022/01/27 04:16:28;;;;;;;8.20;6.90;;;;;;;1.85;64.41;102299.53;2569803;23;20232;-70
2022/01/27 04:17:28;;;;;;;8.43;6.70;;;;;;;2.31;64.13;102372.38;2569408;23;20148;-70
2022/01/27 04:18:29;;;;;;;7.93;6.50;;;;;;;2.32;63.94;102376.69;2569789;23;20175;-70
2022/01/27 04:19:29;;;;;;;8.90;7.00;;;;;;;2.31;63.87;102373.16;2569791;23;20179;-70
2022/01/27 04:20:30;;;;;;;9.33;7.13;;;;;;;2.26;63.29;102372.56;2569058;23;20664;-70
2022/01/27 04:21:31;;;;;;;8.87;6.97;;;;;;;1.62;63.89;102273.66;2569017;23;20619;-71
2022/01/27 04:22:31;;;;;;;9.90;7.07;;;;;;;2.35;64.12;102371.34;2568264;23;20144;-70
2022/01/27 04:23:32;;;;;;;8.67;7.00;;;;;;;2.21;63.63;102362.63;2569790;23;20628;-70
2022/01/27 04:24:32;;;;;;;9.77;7.57;;;;;;;1.62;63.76;102265.47;2569601;23;20471;-70
2022/01/27 04:25:33;;;;;;;10.10;6.83;;;;;;;1.73;64.07;102296.72;2569788;23;20473;-71
2022/01/27 04:26:45;;;;;;;12.32;7.57;;;;;;;1.78;64.24;102301.19;2569637;23;20231;-70
2022/01/27 04:27:50;;;;;;;9.15;7.28;;;;;;;2.19;64.21;102375.84;2568501;23;20155;-71
2022/01/27 04:28:52;;;;;;;9.45;7.25;;;;;;;2.19;64.32;102378.56;2569874;23;20163;-71
2022/01/27 04:29:52;;;;;;;9.77;7.30;;;;;;;2.23;64.26;102368.56;2580934;23;20610;-70
2022/01/27 04:30:55;;;;;;;9.10;7.20;;;;;;;2.27;64.01;102393.31;2569597;23;20176;-71
2022/01/27 04:31:56;;;;;;;9.43;7.70;;;;;;;2.28;63.92;102376.56;2569780;23;20496;-71
2022/01/27 04:32:59;;;;;;;10.47;7.77;;;;;;;2.31;64.06;102380.59;2568950;23;20173;-70
2022/01/27 04:34:00;;;;;;;9.43;7.05;;;;;;;1.37;64.20;102246.50;2569792;23;20511;-71
2022/01/27 04:35:04;;;;;;;9.43;7.77;;;;;;;1.55;63.99;102265.19;2569561;23;20148;-70
2022/01/27 04:36:20;;;;;;;10.57;7.82;;;;;;;2.20;63.68;102354.72;2569771;23;20559;-71
2022/01/27 04:37:24;;;;;;;9.68;7.45;;;;;;;2.33;63.47;102373.63;2569456;23;20140;-71
2022/01/27 04:38:48;;;;;;;10.05;7.97;;;;;;;2.34;63.74;102377.97;2569761;23;20588;-71
2022/01/27 04:40:00;;;;;;;10.25;8.30;;;;;;;2.34;63.82;102375.22;2569600;23;20582;-70
2022/01/27 04:41:17;;;;;;;10.60;7.70;;;;;;;2.13;63.71;102338.88;2568853;23;20214;-71
2022/01/27 04:42:31;;;;;;;11.93;8.40;;;;;;;2.39;63.69;102382.44;2569227;23;20140;-70
2022/01/27 04:43:40;;;;;;;12.90;8.35;;;;;;;1.91;63.68;102305.59;2568622;23;20601;-71
2022/01/27 04:44:52;;;;;;;10.93;8.27;;;;;;;1.87;63.36;102308.22;2583057;22;20156;-70
2022/01/27 04:46:03;;;;;;;11.27;8.15;;;;;;;1.56;63.53;102261.34;2589760;22;20585;-71
2022/01/27 04:47:10;;;;;;;10.40;8.02;;;;;;;1.84;63.70;102302.59;2569297;23;20486;-71
2022/01/27 04:48:15;;;;;;;11.98;8.32;;;;;;;2.31;63.76;102386.84;2581392;23;20526;-71
2022/01/27 04:49:15;;;;;;;11.90;8.40;;;;;;;1.91;64.39;102316.53;2580825;23;20155;-71
2022/01/27 04:50:16;;;;;;;10.87;8.23;;;;;;;2.27;64.07;102377.69;2568923;23;20149;-71
2022/01/27 04:51:19;;;;;;;11.90;8.33;;;;;;;2.36;63.65;102388.59;2569779;23;20158;-70
2022/01/27 04:52:20;;;;;;;11.77;8.45;;;;;;;2.23;64.17;102365.03;2569670;23;20215;-71
2022/01/27 04:53:27;;;;;;;11.47;8.40;;;;;;;1.57;63.92;102253.91;2568999;23;20148;-71
2022/01/27 04:54:35;;;;;;;14.57;9.18;;;;;;;2.33;64.74;102381.84;2569460;23;20210;-71
2022/01/27 04:55:36;;;;;;;10.27;8.20;;;;;;;2.36;65.10;102377.63;2569718;23;20570;-71
2022/01/27 04:56:38;;;;;;;10.77;8.67;;;;;;;2.40;64.60;102384.03;2569635;23;20163;-70
2022/01/27 04:57:42;;;;;;;10.95;8.73;;;;;;;2.43;64.22;102381.44;2569439;23;20658;-71
2022/01/27 04:58:46;;;;;;;11.05;8.45;;;;;;;1.98;63.88;102312.13;2569577;23;20206;-71
2022/01/27 04:59:47;;;;;;;10.80;8.95;;;;;;;2.32;63.96;102357.56;2569790;23;20172;-71
2022/01/27 05:00:47;;;;;;;11.47;8.90;;;;;;;2.46;64.05;102383.50;2569366;23;20153;-71
2022/01/27 05:01:53;;;;;;;12.27;8.87;;;;;;;2.40;64.50;102378.53;2569831;23;20156;-71
2022/01/27 05:02:57;;;;;;;12.25;9.38;;;;;;;2.32;64.71;102365.75;2568940;23;20132;-71
2022/01/27 05:04:07;;;;;;;12.23;8.70;;;;;;;2.20;64.59;102361.03;2569647;23;20152;-70
2022/01/27 05:05:08;;;;;;;12.60;8.82;;;;;;;2.42;65.03;102382.56;2569591;23;20168;-71
2022/01/27 05:06:09;;;;;;;11.50;8.60;;;;;;;2.38;64.71;102354.28;2569685;23;20148;-71
2022/01/27 05:07:11;;;;;;;10.33;8.17;;;;;;;2.53;62.99;102382.94;2569511;23;20394;-71
2022/01/27 05:08:17;;;;;;;11.27;8.88;;;;;;;2.49;64.27;102384.75;2569449;23;20153;-71
2022/01/27 05:09:17;;;;;;;10.90;8.32;;;;;;;2.46;64.17;102391.69;2569821;23;20132;-71
2022/01/27 05:10:22;;;;;;;10.07;7.90;;;;;;;2.46;63.33;102388.19;2567840;23;20544;-75
2022/01/27 05:12:42;;;;;;;11.80;8.48;;;;;;;2.24;63.96;102361.97;2567692;23;20230;-72
2022/01/27 05:14:02;;;;;;;11.13;8.25;;;;;;;2.34;63.07;102386.19;2568245;23;20158;-68
2022/01/27 05:15:03;;;;;;;10.95;8.52;;;;;;;1.71;64.06;102298.97;2568075;23;20138;-74
2022/01/27 05:16:04;;;;;;;10.40;8.23;;;;;;;2.31;64.47;102392.31;2569444;23;20149;-71
2022/01/27 05:17:04;;;;;;;12.27;9.03;;;;;;;1.78;63.53;102309.38;2569127;23;20231;-70
2022/01/27 05:18:05;;;;;;;11.17;8.80;;;;;;;2.24;65.13;102375.63;2568921;23;20227;-69
2022/01/27 05:19:05;;;;;;;13.43;10.40;;;;;;;2.29;64.28;102388.31;2569611;23;20566;-70
2022/01/27 05:20:06;;;;;;;12.90;10.23;;;;;;;2.33;64.52;102392.78;2568829;23;20602;-69
2022/01/27 05:21:07;;;;;;;14.10;10.57;;;;;;;1.76;64.23;102303.47;2569561;23;20156;-70
2022/01/27 05:22:07;;;;;;;12.77;9.83;;;;;;;2.33;64.25;102392.78;2569121;23;20375;-70
2022/01/27 05:23:08;;;;;;;14.23;10.20;;;;;;;1.50;63.74;102284.50;2568511;23;20155;-70
2022/01/27 05:24:09;;;;;;;12.10;10.13;;;;;;;2.26;65.50;102392.50;2567411;23;20156;-70
2022/01/27 05:25:10;;;;;;;14.00;10.52;;;;;;;2.26;64.88;102392.50;2563098;23;20187;-70
2022/01/27 05:26:11;;;;;;;12.70;9.77;;;;;;;2.29;62.85;102391.03;2567995;23;20494;-70
2022/01/27 05:27:11;;;;;;;13.90;9.60;;;;;;;2.24;62.75;102386.56;2567820;23;20557;-70
2022/01/27 05:28:12;;;;;;;15.13;10.10;;;;;;;1.23;62.28;102224.91;2569085;23;20505;-70
2022/01/27 05:29:12;;;;;;;12.43;9.47;;;;;;;2.20;62.29;102388.38;2569393;23;20148;-67
2022/01/27 05:30:13;;;;;;;13.60;9.97;;;;;;;1.62;61.85;102297.44;2568043;23;20152;-71
2022/01/27 05:31:13;;;;;;;12.37;9.27;;;;;;;2.17;62.35;102407.41;2568330;23;20235;-71
2022/01/27 05:32:14;;;;;;;12.20;9.07;;;;;;;1.70;62.33;102332.91;2568408;23;20148;-69